<?xml version="1.0" encoding="UTF-8" standalone="no" ?>
<gpx xmlns="http://www.topografix.com/GPX/1/1" xmlns:xsi="http://www.w3.org/2001/XMLSchema-instance" xsi:schemaLocation="http://www.topografix.com/GPX/1/1 http://www.topografix.com/GPX/1/1/gpx.xsd" version="1.1" creator="VisuGPX - https://www.visugpx.com">
  <metadata>
    <name>83-M-Les Arcs sur Argens</name>
    <desc><![CDATA[83-M-Les Arcs sur Argens : alentour les Arcs]]></desc>
  </metadata>
  <trk>
    <name><![CDATA[5 déc. 2018]]></name>
    <cmt><![CDATA[14:05:26]]></cmt>
    <desc><![CDATA[comment ...]]></desc>
    <trkseg>
      <trkpt lat="43.44993" lon="6.5178">
        <ele>76</ele>
        <time>2018-12-05T13:05:27Z</time>
      </trkpt>
      <trkpt lat="43.44992" lon="6.51781">
        <ele>77</ele>
        <time>2018-12-05T13:05:28Z</time>
      </trkpt>
      <trkpt lat="43.44986" lon="6.51784">
        <ele>77</ele>
        <time>2018-12-05T13:05:34Z</time>
      </trkpt>
      <trkpt lat="43.44971" lon="6.51785">
        <ele>77</ele>
        <time>2018-12-05T13:05:53Z</time>
      </trkpt>
      <trkpt lat="43.44964" lon="6.51787">
        <ele>77</ele>
        <time>2018-12-05T13:05:58Z</time>
      </trkpt>
      <trkpt lat="43.44933" lon="6.51779">
        <ele>75</ele>
        <time>2018-12-05T13:06:30Z</time>
      </trkpt>
      <trkpt lat="43.44925" lon="6.51776">
        <ele>76</ele>
        <time>2018-12-05T13:06:38Z</time>
      </trkpt>
      <trkpt lat="43.4489" lon="6.51791">
        <ele>79</ele>
        <time>2018-12-05T13:07:09Z</time>
      </trkpt>
      <trkpt lat="43.44874" lon="6.51799">
        <ele>79</ele>
        <time>2018-12-05T13:07:21Z</time>
      </trkpt>
      <trkpt lat="43.44866" lon="6.51804">
        <ele>78</ele>
        <time>2018-12-05T13:07:28Z</time>
      </trkpt>
      <trkpt lat="43.44854" lon="6.51821">
        <ele>79</ele>
        <time>2018-12-05T13:07:41Z</time>
      </trkpt>
      <trkpt lat="43.44847" lon="6.51827">
        <ele>79</ele>
        <time>2018-12-05T13:07:48Z</time>
      </trkpt>
      <trkpt lat="43.4484" lon="6.51834">
        <ele>78</ele>
        <time>2018-12-05T13:07:54Z</time>
      </trkpt>
      <trkpt lat="43.44833" lon="6.51841">
        <ele>79</ele>
        <time>2018-12-05T13:08:03Z</time>
      </trkpt>
      <trkpt lat="43.44824" lon="6.51849">
        <ele>80</ele>
        <time>2018-12-05T13:08:10Z</time>
      </trkpt>
      <trkpt lat="43.44815" lon="6.51856">
        <ele>80</ele>
        <time>2018-12-05T13:08:16Z</time>
      </trkpt>
      <trkpt lat="43.44797" lon="6.51871">
        <ele>78</ele>
        <time>2018-12-05T13:08:32Z</time>
      </trkpt>
      <trkpt lat="43.44783" lon="6.51886">
        <ele>78</ele>
        <time>2018-12-05T13:08:47Z</time>
      </trkpt>
      <trkpt lat="43.44769" lon="6.51899">
        <ele>77</ele>
        <time>2018-12-05T13:09:00Z</time>
      </trkpt>
      <trkpt lat="43.44749" lon="6.51931">
        <ele>76</ele>
        <time>2018-12-05T13:09:23Z</time>
      </trkpt>
      <trkpt lat="43.44746" lon="6.5194">
        <ele>78</ele>
        <time>2018-12-05T13:09:29Z</time>
      </trkpt>
      <trkpt lat="43.44741" lon="6.51948">
        <ele>78</ele>
        <time>2018-12-05T13:09:35Z</time>
      </trkpt>
      <trkpt lat="43.44717" lon="6.51992">
        <ele>78</ele>
        <time>2018-12-05T13:10:05Z</time>
      </trkpt>
      <trkpt lat="43.44707" lon="6.52011">
        <ele>78</ele>
        <time>2018-12-05T13:10:19Z</time>
      </trkpt>
      <trkpt lat="43.44677" lon="6.52049">
        <ele>79</ele>
        <time>2018-12-05T13:10:48Z</time>
      </trkpt>
      <trkpt lat="43.44672" lon="6.52051">
        <ele>79</ele>
        <time>2018-12-05T13:10:55Z</time>
      </trkpt>
      <trkpt lat="43.44669" lon="6.52056">
        <ele>79</ele>
        <time>2018-12-05T13:11:30Z</time>
      </trkpt>
      <trkpt lat="43.44664" lon="6.52062">
        <ele>79</ele>
        <time>2018-12-05T13:11:39Z</time>
      </trkpt>
      <trkpt lat="43.44661" lon="6.52093">
        <ele>81</ele>
        <time>2018-12-05T13:12:01Z</time>
      </trkpt>
      <trkpt lat="43.44665" lon="6.521">
        <ele>80</ele>
        <time>2018-12-05T13:12:07Z</time>
      </trkpt>
      <trkpt lat="43.4467" lon="6.52106">
        <ele>80</ele>
        <time>2018-12-05T13:12:12Z</time>
      </trkpt>
      <trkpt lat="43.44676" lon="6.52112">
        <ele>81</ele>
        <time>2018-12-05T13:12:20Z</time>
      </trkpt>
      <trkpt lat="43.44681" lon="6.52116">
        <ele>80</ele>
        <time>2018-12-05T13:12:26Z</time>
      </trkpt>
      <trkpt lat="43.44688" lon="6.52123">
        <ele>82</ele>
        <time>2018-12-05T13:12:37Z</time>
      </trkpt>
      <trkpt lat="43.44692" lon="6.52131">
        <ele>83</ele>
        <time>2018-12-05T13:12:45Z</time>
      </trkpt>
      <trkpt lat="43.44697" lon="6.52138">
        <ele>84</ele>
        <time>2018-12-05T13:12:52Z</time>
      </trkpt>
      <trkpt lat="43.44699" lon="6.52147">
        <ele>84</ele>
        <time>2018-12-05T13:13:02Z</time>
      </trkpt>
      <trkpt lat="43.4472" lon="6.52174">
        <ele>84</ele>
        <time>2018-12-05T13:13:31Z</time>
      </trkpt>
      <trkpt lat="43.44726" lon="6.52185">
        <ele>86</ele>
        <time>2018-12-05T13:13:42Z</time>
      </trkpt>
      <trkpt lat="43.44741" lon="6.52197">
        <ele>88</ele>
        <time>2018-12-05T13:13:59Z</time>
      </trkpt>
      <trkpt lat="43.44747" lon="6.52203">
        <ele>90</ele>
        <time>2018-12-05T13:14:05Z</time>
      </trkpt>
      <trkpt lat="43.44751" lon="6.52211">
        <ele>91</ele>
        <time>2018-12-05T13:14:12Z</time>
      </trkpt>
      <trkpt lat="43.4475" lon="6.5222">
        <ele>90</ele>
        <time>2018-12-05T13:14:18Z</time>
      </trkpt>
      <trkpt lat="43.44746" lon="6.52224">
        <ele>89</ele>
        <time>2018-12-05T13:14:24Z</time>
      </trkpt>
      <trkpt lat="43.44718" lon="6.52261">
        <ele>90</ele>
        <time>2018-12-05T13:14:59Z</time>
      </trkpt>
      <trkpt lat="43.44713" lon="6.52267">
        <ele>91</ele>
        <time>2018-12-05T13:15:04Z</time>
      </trkpt>
      <trkpt lat="43.44704" lon="6.52294">
        <ele>92</ele>
        <time>2018-12-05T13:15:22Z</time>
      </trkpt>
      <trkpt lat="43.44699" lon="6.52301">
        <ele>92</ele>
        <time>2018-12-05T13:15:27Z</time>
      </trkpt>
      <trkpt lat="43.44693" lon="6.52322">
        <ele>94</ele>
        <time>2018-12-05T13:15:41Z</time>
      </trkpt>
      <trkpt lat="43.44694" lon="6.52331">
        <ele>95</ele>
        <time>2018-12-05T13:15:47Z</time>
      </trkpt>
      <trkpt lat="43.44697" lon="6.52342">
        <ele>96</ele>
        <time>2018-12-05T13:15:55Z</time>
      </trkpt>
      <trkpt lat="43.44703" lon="6.5235">
        <ele>96</ele>
        <time>2018-12-05T13:16:02Z</time>
      </trkpt>
      <trkpt lat="43.44712" lon="6.52361">
        <ele>97</ele>
        <time>2018-12-05T13:16:14Z</time>
      </trkpt>
      <trkpt lat="43.44721" lon="6.5237">
        <ele>99</ele>
        <time>2018-12-05T13:16:24Z</time>
      </trkpt>
      <trkpt lat="43.44727" lon="6.52394">
        <ele>100</ele>
        <time>2018-12-05T13:16:44Z</time>
      </trkpt>
      <trkpt lat="43.44727" lon="6.52408">
        <ele>100</ele>
        <time>2018-12-05T13:16:53Z</time>
      </trkpt>
      <trkpt lat="43.44729" lon="6.5242">
        <ele>101</ele>
        <time>2018-12-05T13:17:03Z</time>
      </trkpt>
      <trkpt lat="43.4473" lon="6.5244">
        <ele>103</ele>
        <time>2018-12-05T13:17:20Z</time>
      </trkpt>
      <trkpt lat="43.44729" lon="6.52461">
        <ele>105</ele>
        <time>2018-12-05T13:17:32Z</time>
      </trkpt>
      <trkpt lat="43.44735" lon="6.52473">
        <ele>106</ele>
        <time>2018-12-05T13:17:42Z</time>
      </trkpt>
      <trkpt lat="43.44738" lon="6.52483">
        <ele>108</ele>
        <time>2018-12-05T13:17:50Z</time>
      </trkpt>
      <trkpt lat="43.44741" lon="6.52493">
        <ele>108</ele>
        <time>2018-12-05T13:17:57Z</time>
      </trkpt>
      <trkpt lat="43.44743" lon="6.52506">
        <ele>109</ele>
        <time>2018-12-05T13:18:08Z</time>
      </trkpt>
      <trkpt lat="43.44745" lon="6.52517">
        <ele>109</ele>
        <time>2018-12-05T13:18:16Z</time>
      </trkpt>
      <trkpt lat="43.4475" lon="6.52525">
        <ele>110</ele>
        <time>2018-12-05T13:18:23Z</time>
      </trkpt>
      <trkpt lat="43.44756" lon="6.52534">
        <ele>111</ele>
        <time>2018-12-05T13:18:31Z</time>
      </trkpt>
      <trkpt lat="43.44761" lon="6.52542">
        <ele>112</ele>
        <time>2018-12-05T13:18:40Z</time>
      </trkpt>
      <trkpt lat="43.44765" lon="6.52551">
        <ele>113</ele>
        <time>2018-12-05T13:18:48Z</time>
      </trkpt>
      <trkpt lat="43.44769" lon="6.52561">
        <ele>113</ele>
        <time>2018-12-05T13:18:57Z</time>
      </trkpt>
      <trkpt lat="43.4477" lon="6.52596">
        <ele>117</ele>
        <time>2018-12-05T13:19:21Z</time>
      </trkpt>
      <trkpt lat="43.44774" lon="6.52606">
        <ele>118</ele>
        <time>2018-12-05T13:19:28Z</time>
      </trkpt>
      <trkpt lat="43.44779" lon="6.52617">
        <ele>119</ele>
        <time>2018-12-05T13:19:37Z</time>
      </trkpt>
      <trkpt lat="43.44783" lon="6.52627">
        <ele>120</ele>
        <time>2018-12-05T13:19:46Z</time>
      </trkpt>
      <trkpt lat="43.44788" lon="6.52634">
        <ele>120</ele>
        <time>2018-12-05T13:19:53Z</time>
      </trkpt>
      <trkpt lat="43.44795" lon="6.52644">
        <ele>122</ele>
        <time>2018-12-05T13:20:02Z</time>
      </trkpt>
      <trkpt lat="43.44801" lon="6.52653">
        <ele>123</ele>
        <time>2018-12-05T13:20:11Z</time>
      </trkpt>
      <trkpt lat="43.44816" lon="6.52684">
        <ele>126</ele>
        <time>2018-12-05T13:20:35Z</time>
      </trkpt>
      <trkpt lat="43.4482" lon="6.52692">
        <ele>125</ele>
        <time>2018-12-05T13:20:42Z</time>
      </trkpt>
      <trkpt lat="43.44827" lon="6.52713">
        <ele>125</ele>
        <time>2018-12-05T13:20:56Z</time>
      </trkpt>
      <trkpt lat="43.44831" lon="6.52722">
        <ele>127</ele>
        <time>2018-12-05T13:21:02Z</time>
      </trkpt>
      <trkpt lat="43.44834" lon="6.52733">
        <ele>127</ele>
        <time>2018-12-05T13:21:09Z</time>
      </trkpt>
      <trkpt lat="43.44839" lon="6.52741">
        <ele>128</ele>
        <time>2018-12-05T13:21:15Z</time>
      </trkpt>
      <trkpt lat="43.44844" lon="6.52749">
        <ele>129</ele>
        <time>2018-12-05T13:21:21Z</time>
      </trkpt>
      <trkpt lat="43.44846" lon="6.52774">
        <ele>128</ele>
        <time>2018-12-05T13:21:37Z</time>
      </trkpt>
      <trkpt lat="43.44851" lon="6.52784">
        <ele>127</ele>
        <time>2018-12-05T13:21:45Z</time>
      </trkpt>
      <trkpt lat="43.44855" lon="6.52794">
        <ele>128</ele>
        <time>2018-12-05T13:21:52Z</time>
      </trkpt>
      <trkpt lat="43.4486" lon="6.52804">
        <ele>129</ele>
        <time>2018-12-05T13:22:00Z</time>
      </trkpt>
      <trkpt lat="43.44868" lon="6.52825">
        <ele>132</ele>
        <time>2018-12-05T13:22:17Z</time>
      </trkpt>
      <trkpt lat="43.44871" lon="6.52836">
        <ele>132</ele>
        <time>2018-12-05T13:22:25Z</time>
      </trkpt>
      <trkpt lat="43.44874" lon="6.52846">
        <ele>132</ele>
        <time>2018-12-05T13:22:32Z</time>
      </trkpt>
      <trkpt lat="43.44885" lon="6.52893">
        <ele>136</ele>
        <time>2018-12-05T13:23:06Z</time>
      </trkpt>
      <trkpt lat="43.44888" lon="6.52919">
        <ele>138</ele>
        <time>2018-12-05T13:23:25Z</time>
      </trkpt>
      <trkpt lat="43.44888" lon="6.5293">
        <ele>139</ele>
        <time>2018-12-05T13:23:33Z</time>
      </trkpt>
      <trkpt lat="43.44883" lon="6.52954">
        <ele>140</ele>
        <time>2018-12-05T13:23:48Z</time>
      </trkpt>
      <trkpt lat="43.44882" lon="6.52965">
        <ele>140</ele>
        <time>2018-12-05T13:23:55Z</time>
      </trkpt>
      <trkpt lat="43.44882" lon="6.52977">
        <ele>142</ele>
        <time>2018-12-05T13:24:03Z</time>
      </trkpt>
      <trkpt lat="43.44881" lon="6.52987">
        <ele>142</ele>
        <time>2018-12-05T13:24:10Z</time>
      </trkpt>
      <trkpt lat="43.44877" lon="6.53008">
        <ele>143</ele>
        <time>2018-12-05T13:24:25Z</time>
      </trkpt>
      <trkpt lat="43.44878" lon="6.5302">
        <ele>143</ele>
        <time>2018-12-05T13:24:34Z</time>
      </trkpt>
      <trkpt lat="43.44882" lon="6.5302">
        <ele>144</ele>
        <time>2018-12-05T13:25:10Z</time>
      </trkpt>
      <trkpt lat="43.44884" lon="6.53018">
        <ele>146</ele>
        <time>2018-12-05T13:27:27Z</time>
      </trkpt>
      <trkpt lat="43.44881" lon="6.53023">
        <ele>145</ele>
        <time>2018-12-05T13:28:13Z</time>
      </trkpt>
      <trkpt lat="43.44876" lon="6.53032">
        <ele>145</ele>
        <time>2018-12-05T13:28:21Z</time>
      </trkpt>
      <trkpt lat="43.44871" lon="6.53039">
        <ele>146</ele>
        <time>2018-12-05T13:28:28Z</time>
      </trkpt>
      <trkpt lat="43.44859" lon="6.53047">
        <ele>146</ele>
        <time>2018-12-05T13:28:43Z</time>
      </trkpt>
      <trkpt lat="43.44846" lon="6.53067">
        <ele>150</ele>
        <time>2018-12-05T13:29:03Z</time>
      </trkpt>
      <trkpt lat="43.44834" lon="6.53078">
        <ele>150</ele>
        <time>2018-12-05T13:29:17Z</time>
      </trkpt>
      <trkpt lat="43.44829" lon="6.53083">
        <ele>151</ele>
        <time>2018-12-05T13:29:25Z</time>
      </trkpt>
      <trkpt lat="43.44822" lon="6.53086">
        <ele>152</ele>
        <time>2018-12-05T13:29:32Z</time>
      </trkpt>
      <trkpt lat="43.44815" lon="6.53092">
        <ele>152</ele>
        <time>2018-12-05T13:29:42Z</time>
      </trkpt>
      <trkpt lat="43.44811" lon="6.531">
        <ele>154</ele>
        <time>2018-12-05T13:29:48Z</time>
      </trkpt>
      <trkpt lat="43.44806" lon="6.53108">
        <ele>155</ele>
        <time>2018-12-05T13:29:56Z</time>
      </trkpt>
      <trkpt lat="43.44795" lon="6.53122">
        <ele>157</ele>
        <time>2018-12-05T13:30:10Z</time>
      </trkpt>
      <trkpt lat="43.44795" lon="6.53133">
        <ele>158</ele>
        <time>2018-12-05T13:30:21Z</time>
      </trkpt>
      <trkpt lat="43.4479" lon="6.53153">
        <ele>159</ele>
        <time>2018-12-05T13:30:37Z</time>
      </trkpt>
      <trkpt lat="43.44786" lon="6.53159">
        <ele>158</ele>
        <time>2018-12-05T13:30:43Z</time>
      </trkpt>
      <trkpt lat="43.44782" lon="6.53168">
        <ele>159</ele>
        <time>2018-12-05T13:30:51Z</time>
      </trkpt>
      <trkpt lat="43.44781" lon="6.53175">
        <ele>162</ele>
        <time>2018-12-05T13:31:02Z</time>
      </trkpt>
      <trkpt lat="43.44772" lon="6.53214">
        <ele>164</ele>
        <time>2018-12-05T13:31:33Z</time>
      </trkpt>
      <trkpt lat="43.44768" lon="6.53231">
        <ele>165</ele>
        <time>2018-12-05T13:31:44Z</time>
      </trkpt>
      <trkpt lat="43.44764" lon="6.53278">
        <ele>167</ele>
        <time>2018-12-05T13:32:16Z</time>
      </trkpt>
      <trkpt lat="43.44763" lon="6.53288">
        <ele>167</ele>
        <time>2018-12-05T13:32:24Z</time>
      </trkpt>
      <trkpt lat="43.44762" lon="6.53299">
        <ele>168</ele>
        <time>2018-12-05T13:32:31Z</time>
      </trkpt>
      <trkpt lat="43.4476" lon="6.53328">
        <ele>169</ele>
        <time>2018-12-05T13:32:51Z</time>
      </trkpt>
      <trkpt lat="43.44758" lon="6.53338">
        <ele>170</ele>
        <time>2018-12-05T13:32:59Z</time>
      </trkpt>
      <trkpt lat="43.44755" lon="6.53347">
        <ele>170</ele>
        <time>2018-12-05T13:33:06Z</time>
      </trkpt>
      <trkpt lat="43.44753" lon="6.53355">
        <ele>171</ele>
        <time>2018-12-05T13:33:12Z</time>
      </trkpt>
      <trkpt lat="43.44752" lon="6.53364">
        <ele>172</ele>
        <time>2018-12-05T13:33:20Z</time>
      </trkpt>
      <trkpt lat="43.44749" lon="6.53372">
        <ele>174</ele>
        <time>2018-12-05T13:33:26Z</time>
      </trkpt>
      <trkpt lat="43.44749" lon="6.53382">
        <ele>174</ele>
        <time>2018-12-05T13:33:34Z</time>
      </trkpt>
      <trkpt lat="43.44754" lon="6.53411">
        <ele>178</ele>
        <time>2018-12-05T13:33:57Z</time>
      </trkpt>
      <trkpt lat="43.44757" lon="6.5342">
        <ele>178</ele>
        <time>2018-12-05T13:34:05Z</time>
      </trkpt>
      <trkpt lat="43.44763" lon="6.53431">
        <ele>180</ele>
        <time>2018-12-05T13:34:13Z</time>
      </trkpt>
      <trkpt lat="43.44771" lon="6.53459">
        <ele>182</ele>
        <time>2018-12-05T13:34:34Z</time>
      </trkpt>
      <trkpt lat="43.44773" lon="6.53467">
        <ele>183</ele>
        <time>2018-12-05T13:34:40Z</time>
      </trkpt>
      <trkpt lat="43.44776" lon="6.53474">
        <ele>183</ele>
        <time>2018-12-05T13:34:46Z</time>
      </trkpt>
      <trkpt lat="43.44782" lon="6.53491">
        <ele>184</ele>
        <time>2018-12-05T13:35:01Z</time>
      </trkpt>
      <trkpt lat="43.44781" lon="6.53499">
        <ele>185</ele>
        <time>2018-12-05T13:35:23Z</time>
      </trkpt>
      <trkpt lat="43.44788" lon="6.53503">
        <ele>185</ele>
        <time>2018-12-05T13:36:44Z</time>
      </trkpt>
      <trkpt lat="43.448" lon="6.53508">
        <ele>187</ele>
        <time>2018-12-05T13:36:59Z</time>
      </trkpt>
      <trkpt lat="43.44823" lon="6.53527">
        <ele>188</ele>
        <time>2018-12-05T13:37:29Z</time>
      </trkpt>
      <trkpt lat="43.4483" lon="6.53534">
        <ele>188</ele>
        <time>2018-12-05T13:37:37Z</time>
      </trkpt>
      <trkpt lat="43.44845" lon="6.53569">
        <ele>185</ele>
        <time>2018-12-05T13:38:10Z</time>
      </trkpt>
      <trkpt lat="43.44863" lon="6.53592">
        <ele>187</ele>
        <time>2018-12-05T13:38:38Z</time>
      </trkpt>
      <trkpt lat="43.4487" lon="6.53601">
        <ele>188</ele>
        <time>2018-12-05T13:38:53Z</time>
      </trkpt>
      <trkpt lat="43.44882" lon="6.5362">
        <ele>188</ele>
        <time>2018-12-05T13:39:11Z</time>
      </trkpt>
      <trkpt lat="43.44889" lon="6.53629">
        <ele>188</ele>
        <time>2018-12-05T13:39:21Z</time>
      </trkpt>
      <trkpt lat="43.44893" lon="6.53642">
        <ele>189</ele>
        <time>2018-12-05T13:39:32Z</time>
      </trkpt>
      <trkpt lat="43.44899" lon="6.53648">
        <ele>189</ele>
        <time>2018-12-05T13:39:39Z</time>
      </trkpt>
      <trkpt lat="43.44902" lon="6.53657">
        <ele>190</ele>
        <time>2018-12-05T13:39:49Z</time>
      </trkpt>
      <trkpt lat="43.44905" lon="6.53665">
        <ele>190</ele>
        <time>2018-12-05T13:39:56Z</time>
      </trkpt>
      <trkpt lat="43.4491" lon="6.53673">
        <ele>191</ele>
        <time>2018-12-05T13:40:06Z</time>
      </trkpt>
      <trkpt lat="43.44918" lon="6.53689">
        <ele>193</ele>
        <time>2018-12-05T13:40:34Z</time>
      </trkpt>
      <trkpt lat="43.44924" lon="6.53708">
        <ele>193</ele>
        <time>2018-12-05T13:40:53Z</time>
      </trkpt>
      <trkpt lat="43.44932" lon="6.53728">
        <ele>196</ele>
        <time>2018-12-05T13:41:08Z</time>
      </trkpt>
      <trkpt lat="43.44937" lon="6.53736">
        <ele>196</ele>
        <time>2018-12-05T13:41:16Z</time>
      </trkpt>
      <trkpt lat="43.44942" lon="6.53744">
        <ele>197</ele>
        <time>2018-12-05T13:41:24Z</time>
      </trkpt>
      <trkpt lat="43.44954" lon="6.53758">
        <ele>198</ele>
        <time>2018-12-05T13:41:57Z</time>
      </trkpt>
      <trkpt lat="43.44964" lon="6.53763">
        <ele>198</ele>
        <time>2018-12-05T13:42:10Z</time>
      </trkpt>
      <trkpt lat="43.44969" lon="6.53771">
        <ele>197</ele>
        <time>2018-12-05T13:42:19Z</time>
      </trkpt>
      <trkpt lat="43.44977" lon="6.53777">
        <ele>197</ele>
        <time>2018-12-05T13:42:30Z</time>
      </trkpt>
      <trkpt lat="43.44982" lon="6.53787">
        <ele>195</ele>
        <time>2018-12-05T13:42:40Z</time>
      </trkpt>
      <trkpt lat="43.44993" lon="6.53809">
        <ele>191</ele>
        <time>2018-12-05T13:43:01Z</time>
      </trkpt>
      <trkpt lat="43.45005" lon="6.53825">
        <ele>189</ele>
        <time>2018-12-05T13:43:19Z</time>
      </trkpt>
      <trkpt lat="43.45008" lon="6.53835">
        <ele>188</ele>
        <time>2018-12-05T13:43:29Z</time>
      </trkpt>
      <trkpt lat="43.45014" lon="6.53844">
        <ele>187</ele>
        <time>2018-12-05T13:43:42Z</time>
      </trkpt>
      <trkpt lat="43.45028" lon="6.53856">
        <ele>183</ele>
        <time>2018-12-05T13:44:02Z</time>
      </trkpt>
      <trkpt lat="43.45034" lon="6.53864">
        <ele>181</ele>
        <time>2018-12-05T13:44:15Z</time>
      </trkpt>
      <trkpt lat="43.45039" lon="6.53875">
        <ele>179</ele>
        <time>2018-12-05T13:44:35Z</time>
      </trkpt>
      <trkpt lat="43.45041" lon="6.53884">
        <ele>174</ele>
        <time>2018-12-05T13:44:52Z</time>
      </trkpt>
      <trkpt lat="43.45036" lon="6.53892">
        <ele>169</ele>
        <time>2018-12-05T13:45:07Z</time>
      </trkpt>
      <trkpt lat="43.45033" lon="6.53901">
        <ele>167</ele>
        <time>2018-12-05T13:45:22Z</time>
      </trkpt>
      <trkpt lat="43.45027" lon="6.53907">
        <ele>164</ele>
        <time>2018-12-05T13:45:32Z</time>
      </trkpt>
      <trkpt lat="43.45023" lon="6.53915">
        <ele>161</ele>
        <time>2018-12-05T13:45:46Z</time>
      </trkpt>
      <trkpt lat="43.45017" lon="6.53918">
        <ele>158</ele>
        <time>2018-12-05T13:46:00Z</time>
      </trkpt>
      <trkpt lat="43.45012" lon="6.53923">
        <ele>158</ele>
        <time>2018-12-05T13:46:07Z</time>
      </trkpt>
      <trkpt lat="43.45013" lon="6.53932">
        <ele>156</ele>
        <time>2018-12-05T13:46:23Z</time>
      </trkpt>
      <trkpt lat="43.45014" lon="6.53942">
        <ele>154</ele>
        <time>2018-12-05T13:46:38Z</time>
      </trkpt>
      <trkpt lat="43.45016" lon="6.5395">
        <ele>153</ele>
        <time>2018-12-05T13:46:48Z</time>
      </trkpt>
      <trkpt lat="43.45017" lon="6.53959">
        <ele>151</ele>
        <time>2018-12-05T13:47:04Z</time>
      </trkpt>
      <trkpt lat="43.45017" lon="6.53969">
        <ele>150</ele>
        <time>2018-12-05T13:47:19Z</time>
      </trkpt>
      <trkpt lat="43.45018" lon="6.53978">
        <ele>148</ele>
        <time>2018-12-05T13:47:40Z</time>
      </trkpt>
      <trkpt lat="43.45017" lon="6.53987">
        <ele>145</ele>
        <time>2018-12-05T13:47:56Z</time>
      </trkpt>
      <trkpt lat="43.45017" lon="6.53998">
        <ele>143</ele>
        <time>2018-12-05T13:48:13Z</time>
      </trkpt>
      <trkpt lat="43.45017" lon="6.54011">
        <ele>140</ele>
        <time>2018-12-05T13:48:31Z</time>
      </trkpt>
      <trkpt lat="43.45015" lon="6.54021">
        <ele>139</ele>
        <time>2018-12-05T13:48:53Z</time>
      </trkpt>
      <trkpt lat="43.45012" lon="6.54032">
        <ele>136</ele>
        <time>2018-12-05T13:49:09Z</time>
      </trkpt>
      <trkpt lat="43.45012" lon="6.54041">
        <ele>135</ele>
        <time>2018-12-05T13:49:20Z</time>
      </trkpt>
      <trkpt lat="43.45012" lon="6.54051">
        <ele>129</ele>
        <time>2018-12-05T13:49:34Z</time>
      </trkpt>
      <trkpt lat="43.45012" lon="6.54064">
        <ele>127</ele>
        <time>2018-12-05T13:49:49Z</time>
      </trkpt>
      <trkpt lat="43.45014" lon="6.54074">
        <ele>126</ele>
        <time>2018-12-05T13:50:04Z</time>
      </trkpt>
      <trkpt lat="43.45014" lon="6.54085">
        <ele>124</ele>
        <time>2018-12-05T13:50:15Z</time>
      </trkpt>
      <trkpt lat="43.45016" lon="6.54093">
        <ele>122</ele>
        <time>2018-12-05T13:50:27Z</time>
      </trkpt>
      <trkpt lat="43.45022" lon="6.54102">
        <ele>118</ele>
        <time>2018-12-05T13:50:42Z</time>
      </trkpt>
      <trkpt lat="43.45021" lon="6.54114">
        <ele>117</ele>
        <time>2018-12-05T13:50:59Z</time>
      </trkpt>
      <trkpt lat="43.45025" lon="6.54124">
        <ele>115</ele>
        <time>2018-12-05T13:51:19Z</time>
      </trkpt>
      <trkpt lat="43.45029" lon="6.54133">
        <ele>114</ele>
        <time>2018-12-05T13:51:30Z</time>
      </trkpt>
      <trkpt lat="43.45036" lon="6.54137">
        <ele>111</ele>
        <time>2018-12-05T13:51:42Z</time>
      </trkpt>
      <trkpt lat="43.45043" lon="6.54143">
        <ele>111</ele>
        <time>2018-12-05T13:51:58Z</time>
      </trkpt>
      <trkpt lat="43.45046" lon="6.54154">
        <ele>108</ele>
        <time>2018-12-05T13:52:09Z</time>
      </trkpt>
      <trkpt lat="43.45049" lon="6.54167">
        <ele>107</ele>
        <time>2018-12-05T13:52:22Z</time>
      </trkpt>
      <trkpt lat="43.45057" lon="6.54173">
        <ele>102</ele>
        <time>2018-12-05T13:52:30Z</time>
      </trkpt>
      <trkpt lat="43.45061" lon="6.54181">
        <ele>101</ele>
        <time>2018-12-05T13:52:43Z</time>
      </trkpt>
      <trkpt lat="43.45067" lon="6.54177">
        <ele>96</ele>
        <time>2018-12-05T13:54:10Z</time>
      </trkpt>
      <trkpt lat="43.4507" lon="6.54168">
        <ele>96</ele>
        <time>2018-12-05T13:54:24Z</time>
      </trkpt>
      <trkpt lat="43.45071" lon="6.54161">
        <ele>95</ele>
        <time>2018-12-05T13:54:43Z</time>
      </trkpt>
      <trkpt lat="43.45076" lon="6.54153">
        <ele>94</ele>
        <time>2018-12-05T13:54:52Z</time>
      </trkpt>
      <trkpt lat="43.45083" lon="6.54146">
        <ele>92</ele>
        <time>2018-12-05T13:55:03Z</time>
      </trkpt>
      <trkpt lat="43.4509" lon="6.54136">
        <ele>91</ele>
        <time>2018-12-05T13:55:13Z</time>
      </trkpt>
      <trkpt lat="43.45096" lon="6.54127">
        <ele>91</ele>
        <time>2018-12-05T13:55:24Z</time>
      </trkpt>
      <trkpt lat="43.45106" lon="6.5412">
        <ele>90</ele>
        <time>2018-12-05T13:55:39Z</time>
      </trkpt>
      <trkpt lat="43.45112" lon="6.54117">
        <ele>88</ele>
        <time>2018-12-05T13:55:58Z</time>
      </trkpt>
      <trkpt lat="43.45119" lon="6.54119">
        <ele>86</ele>
        <time>2018-12-05T13:56:06Z</time>
      </trkpt>
      <trkpt lat="43.45128" lon="6.54118">
        <ele>86</ele>
        <time>2018-12-05T13:56:15Z</time>
      </trkpt>
      <trkpt lat="43.45137" lon="6.54115">
        <ele>84</ele>
        <time>2018-12-05T13:56:23Z</time>
      </trkpt>
      <trkpt lat="43.45145" lon="6.54112">
        <ele>84</ele>
        <time>2018-12-05T13:56:34Z</time>
      </trkpt>
      <trkpt lat="43.45181" lon="6.54107">
        <ele>81</ele>
        <time>2018-12-05T13:57:10Z</time>
      </trkpt>
      <trkpt lat="43.45191" lon="6.54107">
        <ele>78</ele>
        <time>2018-12-05T13:57:20Z</time>
      </trkpt>
      <trkpt lat="43.45197" lon="6.54106">
        <ele>77</ele>
        <time>2018-12-05T13:57:31Z</time>
      </trkpt>
      <trkpt lat="43.45205" lon="6.54108">
        <ele>74</ele>
        <time>2018-12-05T13:57:40Z</time>
      </trkpt>
      <trkpt lat="43.45232" lon="6.54125">
        <ele>71</ele>
        <time>2018-12-05T13:58:11Z</time>
      </trkpt>
      <trkpt lat="43.45246" lon="6.54135">
        <ele>69</ele>
        <time>2018-12-05T13:58:29Z</time>
      </trkpt>
      <trkpt lat="43.45252" lon="6.54137">
        <ele>69</ele>
        <time>2018-12-05T13:58:37Z</time>
      </trkpt>
      <trkpt lat="43.45258" lon="6.54147">
        <ele>68</ele>
        <time>2018-12-05T13:58:49Z</time>
      </trkpt>
      <trkpt lat="43.45264" lon="6.54157">
        <ele>67</ele>
        <time>2018-12-05T13:58:59Z</time>
      </trkpt>
      <trkpt lat="43.45271" lon="6.54165">
        <ele>63</ele>
        <time>2018-12-05T13:59:08Z</time>
      </trkpt>
      <trkpt lat="43.45283" lon="6.54184">
        <ele>60</ele>
        <time>2018-12-05T13:59:25Z</time>
      </trkpt>
      <trkpt lat="43.45289" lon="6.54194">
        <ele>59</ele>
        <time>2018-12-05T13:59:34Z</time>
      </trkpt>
      <trkpt lat="43.45292" lon="6.54201">
        <ele>58</ele>
        <time>2018-12-05T13:59:42Z</time>
      </trkpt>
      <trkpt lat="43.45294" lon="6.54209">
        <ele>57</ele>
        <time>2018-12-05T13:59:49Z</time>
      </trkpt>
      <trkpt lat="43.45298" lon="6.54219">
        <ele>56</ele>
        <time>2018-12-05T13:59:58Z</time>
      </trkpt>
      <trkpt lat="43.45306" lon="6.54235">
        <ele>53</ele>
        <time>2018-12-05T14:00:31Z</time>
      </trkpt>
      <trkpt lat="43.45309" lon="6.54244">
        <ele>53</ele>
        <time>2018-12-05T14:00:42Z</time>
      </trkpt>
      <trkpt lat="43.45312" lon="6.54252">
        <ele>49</ele>
        <time>2018-12-05T14:00:57Z</time>
      </trkpt>
      <trkpt lat="43.45318" lon="6.54259">
        <ele>48</ele>
        <time>2018-12-05T14:01:13Z</time>
      </trkpt>
      <trkpt lat="43.45325" lon="6.54266">
        <ele>47</ele>
        <time>2018-12-05T14:01:22Z</time>
      </trkpt>
      <trkpt lat="43.45329" lon="6.54273">
        <ele>44</ele>
        <time>2018-12-05T14:01:33Z</time>
      </trkpt>
      <trkpt lat="43.45335" lon="6.54279">
        <ele>43</ele>
        <time>2018-12-05T14:01:50Z</time>
      </trkpt>
      <trkpt lat="43.45338" lon="6.54285">
        <ele>40</ele>
        <time>2018-12-05T14:02:14Z</time>
      </trkpt>
      <trkpt lat="43.45344" lon="6.54287">
        <ele>37</ele>
        <time>2018-12-05T14:02:37Z</time>
      </trkpt>
      <trkpt lat="43.45348" lon="6.54283">
        <ele>35</ele>
        <time>2018-12-05T14:03:32Z</time>
      </trkpt>
      <trkpt lat="43.45354" lon="6.54278">
        <ele>34</ele>
        <time>2018-12-05T14:03:55Z</time>
      </trkpt>
      <trkpt lat="43.45364" lon="6.54264">
        <ele>32</ele>
        <time>2018-12-05T14:04:09Z</time>
      </trkpt>
      <trkpt lat="43.45364" lon="6.54253">
        <ele>31</ele>
        <time>2018-12-05T14:04:16Z</time>
      </trkpt>
      <trkpt lat="43.45362" lon="6.54244">
        <ele>30</ele>
        <time>2018-12-05T14:04:21Z</time>
      </trkpt>
      <trkpt lat="43.45361" lon="6.54235">
        <ele>29</ele>
        <time>2018-12-05T14:04:27Z</time>
      </trkpt>
      <trkpt lat="43.45366" lon="6.54191">
        <ele>27</ele>
        <time>2018-12-05T14:04:59Z</time>
      </trkpt>
      <trkpt lat="43.45372" lon="6.54179">
        <ele>28</ele>
        <time>2018-12-05T14:05:10Z</time>
      </trkpt>
      <trkpt lat="43.45385" lon="6.54169">
        <ele>29</ele>
        <time>2018-12-05T14:05:25Z</time>
      </trkpt>
      <trkpt lat="43.45392" lon="6.54161">
        <ele>30</ele>
        <time>2018-12-05T14:05:32Z</time>
      </trkpt>
      <trkpt lat="43.45395" lon="6.54149">
        <ele>29</ele>
        <time>2018-12-05T14:05:40Z</time>
      </trkpt>
      <trkpt lat="43.45405" lon="6.5413">
        <ele>25</ele>
        <time>2018-12-05T14:05:56Z</time>
      </trkpt>
      <trkpt lat="43.45412" lon="6.54122">
        <ele>27</ele>
        <time>2018-12-05T14:06:05Z</time>
      </trkpt>
      <trkpt lat="43.45421" lon="6.54103">
        <ele>29</ele>
        <time>2018-12-05T14:06:25Z</time>
      </trkpt>
      <trkpt lat="43.45424" lon="6.54092">
        <ele>29</ele>
        <time>2018-12-05T14:06:32Z</time>
      </trkpt>
      <trkpt lat="43.45421" lon="6.54069">
        <ele>27</ele>
        <time>2018-12-05T14:06:43Z</time>
      </trkpt>
      <trkpt lat="43.45419" lon="6.54061">
        <ele>26</ele>
        <time>2018-12-05T14:06:49Z</time>
      </trkpt>
      <trkpt lat="43.45408" lon="6.54003">
        <ele>26</ele>
        <time>2018-12-05T14:07:24Z</time>
      </trkpt>
      <trkpt lat="43.45404" lon="6.53984">
        <ele>27</ele>
        <time>2018-12-05T14:07:34Z</time>
      </trkpt>
      <trkpt lat="43.45403" lon="6.53975">
        <ele>27</ele>
        <time>2018-12-05T14:07:38Z</time>
      </trkpt>
      <trkpt lat="43.45407" lon="6.53933">
        <ele>27</ele>
        <time>2018-12-05T14:08:01Z</time>
      </trkpt>
      <trkpt lat="43.45424" lon="6.539">
        <ele>30</ele>
        <time>2018-12-05T14:08:24Z</time>
      </trkpt>
      <trkpt lat="43.45426" lon="6.53891">
        <ele>31</ele>
        <time>2018-12-05T14:08:30Z</time>
      </trkpt>
      <trkpt lat="43.45436" lon="6.53871">
        <ele>31</ele>
        <time>2018-12-05T14:08:42Z</time>
      </trkpt>
      <trkpt lat="43.45467" lon="6.53842">
        <ele>35</ele>
        <time>2018-12-05T14:09:16Z</time>
      </trkpt>
      <trkpt lat="43.45473" lon="6.53841">
        <ele>35</ele>
        <time>2018-12-05T14:09:22Z</time>
      </trkpt>
      <trkpt lat="43.4549" lon="6.53822">
        <ele>33</ele>
        <time>2018-12-05T14:09:40Z</time>
      </trkpt>
      <trkpt lat="43.45495" lon="6.53817">
        <ele>34</ele>
        <time>2018-12-05T14:09:45Z</time>
      </trkpt>
      <trkpt lat="43.45499" lon="6.53809">
        <ele>34</ele>
        <time>2018-12-05T14:09:53Z</time>
      </trkpt>
      <trkpt lat="43.45505" lon="6.53806">
        <ele>32</ele>
        <time>2018-12-05T14:10:00Z</time>
      </trkpt>
      <trkpt lat="43.4551" lon="6.53802">
        <ele>30</ele>
        <time>2018-12-05T14:10:06Z</time>
      </trkpt>
      <trkpt lat="43.45514" lon="6.53795">
        <ele>28</ele>
        <time>2018-12-05T14:10:25Z</time>
      </trkpt>
      <trkpt lat="43.45512" lon="6.5379">
        <ele>28</ele>
        <time>2018-12-05T14:10:46Z</time>
      </trkpt>
      <trkpt lat="43.45512" lon="6.5378">
        <ele>28</ele>
        <time>2018-12-05T14:10:55Z</time>
      </trkpt>
      <trkpt lat="43.45514" lon="6.53767">
        <ele>28</ele>
        <time>2018-12-05T14:11:08Z</time>
      </trkpt>
      <trkpt lat="43.45516" lon="6.5376">
        <ele>28</ele>
        <time>2018-12-05T14:11:16Z</time>
      </trkpt>
      <trkpt lat="43.45516" lon="6.53749">
        <ele>29</ele>
        <time>2018-12-05T14:11:25Z</time>
      </trkpt>
      <trkpt lat="43.45513" lon="6.53739">
        <ele>30</ele>
        <time>2018-12-05T14:11:32Z</time>
      </trkpt>
      <trkpt lat="43.45514" lon="6.53728">
        <ele>31</ele>
        <time>2018-12-05T14:11:41Z</time>
      </trkpt>
      <trkpt lat="43.45514" lon="6.53717">
        <ele>31</ele>
        <time>2018-12-05T14:11:52Z</time>
      </trkpt>
      <trkpt lat="43.45514" lon="6.53695">
        <ele>34</ele>
        <time>2018-12-05T14:12:15Z</time>
      </trkpt>
      <trkpt lat="43.45514" lon="6.53685">
        <ele>35</ele>
        <time>2018-12-05T14:12:44Z</time>
      </trkpt>
      <trkpt lat="43.45515" lon="6.53675">
        <ele>35</ele>
        <time>2018-12-05T14:12:56Z</time>
      </trkpt>
      <trkpt lat="43.45515" lon="6.53664">
        <ele>34</ele>
        <time>2018-12-05T14:13:06Z</time>
      </trkpt>
      <trkpt lat="43.45517" lon="6.53654">
        <ele>35</ele>
        <time>2018-12-05T14:13:40Z</time>
      </trkpt>
      <trkpt lat="43.45519" lon="6.53645">
        <ele>36</ele>
        <time>2018-12-05T14:13:52Z</time>
      </trkpt>
      <trkpt lat="43.45521" lon="6.53634">
        <ele>35</ele>
        <time>2018-12-05T14:14:06Z</time>
      </trkpt>
      <trkpt lat="43.45524" lon="6.53625">
        <ele>38</ele>
        <time>2018-12-05T14:14:18Z</time>
      </trkpt>
      <trkpt lat="43.45525" lon="6.53615">
        <ele>39</ele>
        <time>2018-12-05T14:14:30Z</time>
      </trkpt>
      <trkpt lat="43.4553" lon="6.53607">
        <ele>41</ele>
        <time>2018-12-05T14:14:39Z</time>
      </trkpt>
      <trkpt lat="43.45533" lon="6.53597">
        <ele>43</ele>
        <time>2018-12-05T14:14:49Z</time>
      </trkpt>
      <trkpt lat="43.45537" lon="6.53586">
        <ele>44</ele>
        <time>2018-12-05T14:15:00Z</time>
      </trkpt>
      <trkpt lat="43.45544" lon="6.53576">
        <ele>45</ele>
        <time>2018-12-05T14:15:09Z</time>
      </trkpt>
      <trkpt lat="43.45553" lon="6.53565">
        <ele>47</ele>
        <time>2018-12-05T14:15:18Z</time>
      </trkpt>
      <trkpt lat="43.45558" lon="6.53553">
        <ele>48</ele>
        <time>2018-12-05T14:15:27Z</time>
      </trkpt>
      <trkpt lat="43.45559" lon="6.53538">
        <ele>48</ele>
        <time>2018-12-05T14:15:37Z</time>
      </trkpt>
      <trkpt lat="43.45554" lon="6.53524">
        <ele>47</ele>
        <time>2018-12-05T14:17:18Z</time>
      </trkpt>
      <trkpt lat="43.45545" lon="6.53517">
        <ele>53</ele>
        <time>2018-12-05T14:17:31Z</time>
      </trkpt>
      <trkpt lat="43.45538" lon="6.5351">
        <ele>54</ele>
        <time>2018-12-05T14:17:43Z</time>
      </trkpt>
      <trkpt lat="43.45531" lon="6.53502">
        <ele>58</ele>
        <time>2018-12-05T14:17:57Z</time>
      </trkpt>
      <trkpt lat="43.45512" lon="6.5349">
        <ele>59</ele>
        <time>2018-12-05T14:18:25Z</time>
      </trkpt>
      <trkpt lat="43.45503" lon="6.53489">
        <ele>61</ele>
        <time>2018-12-05T14:18:34Z</time>
      </trkpt>
      <trkpt lat="43.45494" lon="6.53489">
        <ele>63</ele>
        <time>2018-12-05T14:18:47Z</time>
      </trkpt>
      <trkpt lat="43.45485" lon="6.53486">
        <ele>66</ele>
        <time>2018-12-05T14:18:55Z</time>
      </trkpt>
      <trkpt lat="43.45475" lon="6.53483">
        <ele>67</ele>
        <time>2018-12-05T14:19:04Z</time>
      </trkpt>
      <trkpt lat="43.45459" lon="6.53489">
        <ele>70</ele>
        <time>2018-12-05T14:19:20Z</time>
      </trkpt>
      <trkpt lat="43.4545" lon="6.5349">
        <ele>71</ele>
        <time>2018-12-05T14:19:30Z</time>
      </trkpt>
      <trkpt lat="43.45441" lon="6.53494">
        <ele>73</ele>
        <time>2018-12-05T14:19:38Z</time>
      </trkpt>
      <trkpt lat="43.45416" lon="6.53515">
        <ele>75</ele>
        <time>2018-12-05T14:20:03Z</time>
      </trkpt>
      <trkpt lat="43.45394" lon="6.53511">
        <ele>78</ele>
        <time>2018-12-05T14:20:35Z</time>
      </trkpt>
      <trkpt lat="43.45386" lon="6.53502">
        <ele>79</ele>
        <time>2018-12-05T14:20:48Z</time>
      </trkpt>
      <trkpt lat="43.45384" lon="6.53487">
        <ele>82</ele>
        <time>2018-12-05T14:21:04Z</time>
      </trkpt>
      <trkpt lat="43.45378" lon="6.53476">
        <ele>83</ele>
        <time>2018-12-05T14:21:19Z</time>
      </trkpt>
      <trkpt lat="43.4537" lon="6.5347">
        <ele>84</ele>
        <time>2018-12-05T14:21:55Z</time>
      </trkpt>
      <trkpt lat="43.45362" lon="6.53465">
        <ele>86</ele>
        <time>2018-12-05T14:22:05Z</time>
      </trkpt>
      <trkpt lat="43.45353" lon="6.53458">
        <ele>88</ele>
        <time>2018-12-05T14:22:28Z</time>
      </trkpt>
      <trkpt lat="43.45342" lon="6.53456">
        <ele>89</ele>
        <time>2018-12-05T14:22:42Z</time>
      </trkpt>
      <trkpt lat="43.45331" lon="6.53454">
        <ele>94</ele>
        <time>2018-12-05T14:22:58Z</time>
      </trkpt>
      <trkpt lat="43.45321" lon="6.53452">
        <ele>96</ele>
        <time>2018-12-05T14:23:14Z</time>
      </trkpt>
      <trkpt lat="43.45314" lon="6.53443">
        <ele>98</ele>
        <time>2018-12-05T14:23:27Z</time>
      </trkpt>
      <trkpt lat="43.45303" lon="6.53436">
        <ele>99</ele>
        <time>2018-12-05T14:23:39Z</time>
      </trkpt>
      <trkpt lat="43.45294" lon="6.53428">
        <ele>102</ele>
        <time>2018-12-05T14:23:55Z</time>
      </trkpt>
      <trkpt lat="43.45287" lon="6.53421">
        <ele>103</ele>
        <time>2018-12-05T14:24:04Z</time>
      </trkpt>
      <trkpt lat="43.45279" lon="6.53413">
        <ele>106</ele>
        <time>2018-12-05T14:24:20Z</time>
      </trkpt>
      <trkpt lat="43.45263" lon="6.53398">
        <ele>109</ele>
        <time>2018-12-05T14:24:39Z</time>
      </trkpt>
      <trkpt lat="43.45237" lon="6.53395">
        <ele>113</ele>
        <time>2018-12-05T14:25:11Z</time>
      </trkpt>
      <trkpt lat="43.45235" lon="6.53399">
        <ele>119</ele>
        <time>2018-12-05T14:26:28Z</time>
      </trkpt>
      <trkpt lat="43.45228" lon="6.534">
        <ele>114</ele>
        <time>2018-12-05T14:27:41Z</time>
      </trkpt>
      <trkpt lat="43.4521" lon="6.5341">
        <ele>121</ele>
        <time>2018-12-05T14:28:11Z</time>
      </trkpt>
      <trkpt lat="43.45188" lon="6.53423">
        <ele>121</ele>
        <time>2018-12-05T14:28:35Z</time>
      </trkpt>
      <trkpt lat="43.4518" lon="6.53426">
        <ele>122</ele>
        <time>2018-12-05T14:28:42Z</time>
      </trkpt>
      <trkpt lat="43.45155" lon="6.53441">
        <ele>123</ele>
        <time>2018-12-05T14:29:05Z</time>
      </trkpt>
      <trkpt lat="43.45146" lon="6.53445">
        <ele>125</ele>
        <time>2018-12-05T14:29:12Z</time>
      </trkpt>
      <trkpt lat="43.45137" lon="6.53451">
        <ele>126</ele>
        <time>2018-12-05T14:29:22Z</time>
      </trkpt>
      <trkpt lat="43.45127" lon="6.53456">
        <ele>127</ele>
        <time>2018-12-05T14:29:32Z</time>
      </trkpt>
      <trkpt lat="43.45118" lon="6.5346">
        <ele>129</ele>
        <time>2018-12-05T14:29:40Z</time>
      </trkpt>
      <trkpt lat="43.45108" lon="6.53457">
        <ele>130</ele>
        <time>2018-12-05T14:29:50Z</time>
      </trkpt>
      <trkpt lat="43.45102" lon="6.53443">
        <ele>133</ele>
        <time>2018-12-05T14:30:03Z</time>
      </trkpt>
      <trkpt lat="43.45094" lon="6.53435">
        <ele>133</ele>
        <time>2018-12-05T14:30:13Z</time>
      </trkpt>
      <trkpt lat="43.45093" lon="6.53421">
        <ele>132</ele>
        <time>2018-12-05T14:30:24Z</time>
      </trkpt>
      <trkpt lat="43.45089" lon="6.53407">
        <ele>132</ele>
        <time>2018-12-05T14:30:35Z</time>
      </trkpt>
      <trkpt lat="43.45081" lon="6.53395">
        <ele>134</ele>
        <time>2018-12-05T14:30:46Z</time>
      </trkpt>
      <trkpt lat="43.4507" lon="6.53375">
        <ele>136</ele>
        <time>2018-12-05T14:30:59Z</time>
      </trkpt>
      <trkpt lat="43.45059" lon="6.53353">
        <ele>139</ele>
        <time>2018-12-05T14:31:16Z</time>
      </trkpt>
      <trkpt lat="43.45053" lon="6.53345">
        <ele>140</ele>
        <time>2018-12-05T14:31:24Z</time>
      </trkpt>
      <trkpt lat="43.45034" lon="6.53328">
        <ele>139</ele>
        <time>2018-12-05T14:31:43Z</time>
      </trkpt>
      <trkpt lat="43.45025" lon="6.53328">
        <ele>138</ele>
        <time>2018-12-05T14:31:50Z</time>
      </trkpt>
      <trkpt lat="43.45017" lon="6.53329">
        <ele>138</ele>
        <time>2018-12-05T14:31:55Z</time>
      </trkpt>
      <trkpt lat="43.4501" lon="6.53336">
        <ele>139</ele>
        <time>2018-12-05T14:32:02Z</time>
      </trkpt>
      <trkpt lat="43.44997" lon="6.53349">
        <ele>138</ele>
        <time>2018-12-05T14:32:15Z</time>
      </trkpt>
      <trkpt lat="43.44988" lon="6.53348">
        <ele>137</ele>
        <time>2018-12-05T14:32:25Z</time>
      </trkpt>
      <trkpt lat="43.4498" lon="6.53345">
        <ele>137</ele>
        <time>2018-12-05T14:32:37Z</time>
      </trkpt>
      <trkpt lat="43.44969" lon="6.53342">
        <ele>139</ele>
        <time>2018-12-05T14:32:53Z</time>
      </trkpt>
      <trkpt lat="43.44951" lon="6.53337">
        <ele>144</ele>
        <time>2018-12-05T14:33:14Z</time>
      </trkpt>
      <trkpt lat="43.44942" lon="6.53339">
        <ele>145</ele>
        <time>2018-12-05T14:33:24Z</time>
      </trkpt>
      <trkpt lat="43.44934" lon="6.53342">
        <ele>145</ele>
        <time>2018-12-05T14:33:31Z</time>
      </trkpt>
      <trkpt lat="43.44928" lon="6.53344">
        <ele>146</ele>
        <time>2018-12-05T14:33:39Z</time>
      </trkpt>
      <trkpt lat="43.44922" lon="6.53349">
        <ele>146</ele>
        <time>2018-12-05T14:33:45Z</time>
      </trkpt>
      <trkpt lat="43.44889" lon="6.53366">
        <ele>149</ele>
        <time>2018-12-05T14:34:17Z</time>
      </trkpt>
      <trkpt lat="43.44882" lon="6.53371">
        <ele>149</ele>
        <time>2018-12-05T14:34:24Z</time>
      </trkpt>
      <trkpt lat="43.44875" lon="6.5337">
        <ele>150</ele>
        <time>2018-12-05T14:34:31Z</time>
      </trkpt>
      <trkpt lat="43.44868" lon="6.53371">
        <ele>150</ele>
        <time>2018-12-05T14:34:36Z</time>
      </trkpt>
      <trkpt lat="43.44855" lon="6.53369">
        <ele>149</ele>
        <time>2018-12-05T14:34:47Z</time>
      </trkpt>
      <trkpt lat="43.44841" lon="6.53358">
        <ele>150</ele>
        <time>2018-12-05T14:35:06Z</time>
      </trkpt>
      <trkpt lat="43.44833" lon="6.53338">
        <ele>154</ele>
        <time>2018-12-05T14:35:34Z</time>
      </trkpt>
      <trkpt lat="43.44827" lon="6.53327">
        <ele>156</ele>
        <time>2018-12-05T14:35:45Z</time>
      </trkpt>
      <trkpt lat="43.44822" lon="6.53316">
        <ele>158</ele>
        <time>2018-12-05T14:35:56Z</time>
      </trkpt>
      <trkpt lat="43.44817" lon="6.53305">
        <ele>160</ele>
        <time>2018-12-05T14:36:04Z</time>
      </trkpt>
      <trkpt lat="43.44812" lon="6.53294">
        <ele>160</ele>
        <time>2018-12-05T14:36:13Z</time>
      </trkpt>
      <trkpt lat="43.44808" lon="6.53285">
        <ele>160</ele>
        <time>2018-12-05T14:36:23Z</time>
      </trkpt>
      <trkpt lat="43.44803" lon="6.53276">
        <ele>161</ele>
        <time>2018-12-05T14:36:31Z</time>
      </trkpt>
      <trkpt lat="43.44793" lon="6.53258">
        <ele>164</ele>
        <time>2018-12-05T14:36:49Z</time>
      </trkpt>
      <trkpt lat="43.44789" lon="6.53248">
        <ele>166</ele>
        <time>2018-12-05T14:36:59Z</time>
      </trkpt>
      <trkpt lat="43.4478" lon="6.53229">
        <ele>168</ele>
        <time>2018-12-05T14:37:19Z</time>
      </trkpt>
      <trkpt lat="43.44772" lon="6.53228">
        <ele>169</ele>
        <time>2018-12-05T14:37:26Z</time>
      </trkpt>
      <trkpt lat="43.44768" lon="6.53227">
        <ele>171</ele>
        <time>2018-12-05T14:38:49Z</time>
      </trkpt>
      <trkpt lat="43.44768" lon="6.53234">
        <ele>170</ele>
        <time>2018-12-05T14:41:24Z</time>
      </trkpt>
      <trkpt lat="43.44769" lon="6.53239">
        <ele>173</ele>
        <time>2018-12-05T14:42:59Z</time>
      </trkpt>
      <trkpt lat="43.44767" lon="6.53243">
        <ele>173</ele>
        <time>2018-12-05T14:43:03Z</time>
      </trkpt>
      <trkpt lat="43.44766" lon="6.53249">
        <ele>171</ele>
        <time>2018-12-05T14:43:08Z</time>
      </trkpt>
      <trkpt lat="43.44765" lon="6.53256">
        <ele>172</ele>
        <time>2018-12-05T14:43:13Z</time>
      </trkpt>
      <trkpt lat="43.44762" lon="6.533">
        <ele>172</ele>
        <time>2018-12-05T14:43:46Z</time>
      </trkpt>
      <trkpt lat="43.4476" lon="6.53314">
        <ele>174</ele>
        <time>2018-12-05T14:43:56Z</time>
      </trkpt>
      <trkpt lat="43.44759" lon="6.53323">
        <ele>175</ele>
        <time>2018-12-05T14:44:12Z</time>
      </trkpt>
      <trkpt lat="43.44754" lon="6.53341">
        <ele>178</ele>
        <time>2018-12-05T14:44:27Z</time>
      </trkpt>
      <trkpt lat="43.44752" lon="6.53362">
        <ele>180</ele>
        <time>2018-12-05T14:44:46Z</time>
      </trkpt>
      <trkpt lat="43.4475" lon="6.53385">
        <ele>184</ele>
        <time>2018-12-05T14:45:01Z</time>
      </trkpt>
      <trkpt lat="43.44749" lon="6.53397">
        <ele>187</ele>
        <time>2018-12-05T14:45:10Z</time>
      </trkpt>
      <trkpt lat="43.44752" lon="6.53407">
        <ele>189</ele>
        <time>2018-12-05T14:45:19Z</time>
      </trkpt>
      <trkpt lat="43.44755" lon="6.53417">
        <ele>190</ele>
        <time>2018-12-05T14:45:27Z</time>
      </trkpt>
      <trkpt lat="43.44758" lon="6.53427">
        <ele>191</ele>
        <time>2018-12-05T14:45:35Z</time>
      </trkpt>
      <trkpt lat="43.44765" lon="6.53446">
        <ele>193</ele>
        <time>2018-12-05T14:45:50Z</time>
      </trkpt>
      <trkpt lat="43.44772" lon="6.53473">
        <ele>194</ele>
        <time>2018-12-05T14:46:13Z</time>
      </trkpt>
      <trkpt lat="43.44774" lon="6.5348">
        <ele>194</ele>
        <time>2018-12-05T14:46:18Z</time>
      </trkpt>
      <trkpt lat="43.44777" lon="6.53488">
        <ele>194</ele>
        <time>2018-12-05T14:46:23Z</time>
      </trkpt>
      <trkpt lat="43.44781" lon="6.53495">
        <ele>195</ele>
        <time>2018-12-05T14:46:30Z</time>
      </trkpt>
      <trkpt lat="43.44779" lon="6.53502">
        <ele>195</ele>
        <time>2018-12-05T14:46:39Z</time>
      </trkpt>
      <trkpt lat="43.44771" lon="6.53508">
        <ele>194</ele>
        <time>2018-12-05T14:46:57Z</time>
      </trkpt>
      <trkpt lat="43.44767" lon="6.53514">
        <ele>194</ele>
        <time>2018-12-05T14:47:06Z</time>
      </trkpt>
      <trkpt lat="43.4476" lon="6.53518">
        <ele>194</ele>
        <time>2018-12-05T14:47:14Z</time>
      </trkpt>
      <trkpt lat="43.44754" lon="6.53526">
        <ele>194</ele>
        <time>2018-12-05T14:47:22Z</time>
      </trkpt>
      <trkpt lat="43.4474" lon="6.53537">
        <ele>193</ele>
        <time>2018-12-05T14:47:41Z</time>
      </trkpt>
      <trkpt lat="43.44734" lon="6.53542">
        <ele>192</ele>
        <time>2018-12-05T14:47:50Z</time>
      </trkpt>
      <trkpt lat="43.44726" lon="6.53547">
        <ele>191</ele>
        <time>2018-12-05T14:47:59Z</time>
      </trkpt>
      <trkpt lat="43.4472" lon="6.53554">
        <ele>189</ele>
        <time>2018-12-05T14:48:08Z</time>
      </trkpt>
      <trkpt lat="43.44705" lon="6.53562">
        <ele>187</ele>
        <time>2018-12-05T14:48:24Z</time>
      </trkpt>
      <trkpt lat="43.44698" lon="6.53567">
        <ele>187</ele>
        <time>2018-12-05T14:48:33Z</time>
      </trkpt>
      <trkpt lat="43.44684" lon="6.53578">
        <ele>185</ele>
        <time>2018-12-05T14:48:49Z</time>
      </trkpt>
      <trkpt lat="43.44671" lon="6.53589">
        <ele>183</ele>
        <time>2018-12-05T14:49:04Z</time>
      </trkpt>
      <trkpt lat="43.44668" lon="6.53599">
        <ele>182</ele>
        <time>2018-12-05T14:49:11Z</time>
      </trkpt>
      <trkpt lat="43.44661" lon="6.53604">
        <ele>181</ele>
        <time>2018-12-05T14:49:19Z</time>
      </trkpt>
      <trkpt lat="43.44656" lon="6.53613">
        <ele>180</ele>
        <time>2018-12-05T14:49:28Z</time>
      </trkpt>
      <trkpt lat="43.44648" lon="6.5362">
        <ele>179</ele>
        <time>2018-12-05T14:49:36Z</time>
      </trkpt>
      <trkpt lat="43.44636" lon="6.53638">
        <ele>177</ele>
        <time>2018-12-05T14:49:53Z</time>
      </trkpt>
      <trkpt lat="43.4463" lon="6.53646">
        <ele>173</ele>
        <time>2018-12-05T14:50:02Z</time>
      </trkpt>
      <trkpt lat="43.44623" lon="6.53653">
        <ele>172</ele>
        <time>2018-12-05T14:50:15Z</time>
      </trkpt>
      <trkpt lat="43.44608" lon="6.53664">
        <ele>171</ele>
        <time>2018-12-05T14:50:37Z</time>
      </trkpt>
      <trkpt lat="43.44591" lon="6.53668">
        <ele>167</ele>
        <time>2018-12-05T14:51:03Z</time>
      </trkpt>
      <trkpt lat="43.44583" lon="6.53665">
        <ele>163</ele>
        <time>2018-12-05T14:51:12Z</time>
      </trkpt>
      <trkpt lat="43.44575" lon="6.53665">
        <ele>161</ele>
        <time>2018-12-05T14:51:22Z</time>
      </trkpt>
      <trkpt lat="43.44567" lon="6.53663">
        <ele>157</ele>
        <time>2018-12-05T14:51:28Z</time>
      </trkpt>
      <trkpt lat="43.4456" lon="6.53661">
        <ele>155</ele>
        <time>2018-12-05T14:51:35Z</time>
      </trkpt>
      <trkpt lat="43.44552" lon="6.53659">
        <ele>152</ele>
        <time>2018-12-05T14:51:47Z</time>
      </trkpt>
      <trkpt lat="43.44545" lon="6.53657">
        <ele>151</ele>
        <time>2018-12-05T14:51:58Z</time>
      </trkpt>
      <trkpt lat="43.44537" lon="6.53659">
        <ele>148</ele>
        <time>2018-12-05T14:52:08Z</time>
      </trkpt>
      <trkpt lat="43.44507" lon="6.53671">
        <ele>142</ele>
        <time>2018-12-05T14:52:39Z</time>
      </trkpt>
      <trkpt lat="43.44499" lon="6.53676">
        <ele>140</ele>
        <time>2018-12-05T14:52:47Z</time>
      </trkpt>
      <trkpt lat="43.44488" lon="6.53688">
        <ele>138</ele>
        <time>2018-12-05T14:53:01Z</time>
      </trkpt>
      <trkpt lat="43.44482" lon="6.53696">
        <ele>138</ele>
        <time>2018-12-05T14:53:08Z</time>
      </trkpt>
      <trkpt lat="43.44478" lon="6.53705">
        <ele>136</ele>
        <time>2018-12-05T14:53:14Z</time>
      </trkpt>
      <trkpt lat="43.4447" lon="6.53723">
        <ele>137</ele>
        <time>2018-12-05T14:53:27Z</time>
      </trkpt>
      <trkpt lat="43.4446" lon="6.53752">
        <ele>136</ele>
        <time>2018-12-05T14:53:48Z</time>
      </trkpt>
      <trkpt lat="43.44459" lon="6.53761">
        <ele>136</ele>
        <time>2018-12-05T14:53:54Z</time>
      </trkpt>
      <trkpt lat="43.44456" lon="6.5377">
        <ele>136</ele>
        <time>2018-12-05T14:53:59Z</time>
      </trkpt>
      <trkpt lat="43.44453" lon="6.5379">
        <ele>137</ele>
        <time>2018-12-05T14:54:11Z</time>
      </trkpt>
      <trkpt lat="43.44446" lon="6.53814">
        <ele>133</ele>
        <time>2018-12-05T14:54:29Z</time>
      </trkpt>
      <trkpt lat="43.4444" lon="6.53822">
        <ele>133</ele>
        <time>2018-12-05T14:54:38Z</time>
      </trkpt>
      <trkpt lat="43.44422" lon="6.53842">
        <ele>130</ele>
        <time>2018-12-05T14:55:05Z</time>
      </trkpt>
      <trkpt lat="43.44413" lon="6.53847">
        <ele>130</ele>
        <time>2018-12-05T14:55:14Z</time>
      </trkpt>
      <trkpt lat="43.44405" lon="6.53846">
        <ele>128</ele>
        <time>2018-12-05T14:55:23Z</time>
      </trkpt>
      <trkpt lat="43.44397" lon="6.53846">
        <ele>127</ele>
        <time>2018-12-05T14:55:30Z</time>
      </trkpt>
      <trkpt lat="43.4439" lon="6.53847">
        <ele>125</ele>
        <time>2018-12-05T14:55:38Z</time>
      </trkpt>
      <trkpt lat="43.44357" lon="6.53842">
        <ele>118</ele>
        <time>2018-12-05T14:56:12Z</time>
      </trkpt>
      <trkpt lat="43.44342" lon="6.53839">
        <ele>117</ele>
        <time>2018-12-05T14:56:26Z</time>
      </trkpt>
      <trkpt lat="43.44326" lon="6.53837">
        <ele>114</ele>
        <time>2018-12-05T14:56:42Z</time>
      </trkpt>
      <trkpt lat="43.4431" lon="6.53834">
        <ele>110</ele>
        <time>2018-12-05T14:56:59Z</time>
      </trkpt>
      <trkpt lat="43.44303" lon="6.53832">
        <ele>107</ele>
        <time>2018-12-05T14:57:09Z</time>
      </trkpt>
      <trkpt lat="43.44295" lon="6.53833">
        <ele>104</ele>
        <time>2018-12-05T14:57:19Z</time>
      </trkpt>
      <trkpt lat="43.44288" lon="6.53833">
        <ele>103</ele>
        <time>2018-12-05T14:57:25Z</time>
      </trkpt>
      <trkpt lat="43.4428" lon="6.53831">
        <ele>102</ele>
        <time>2018-12-05T14:57:33Z</time>
      </trkpt>
      <trkpt lat="43.44264" lon="6.53827">
        <ele>99</ele>
        <time>2018-12-05T14:57:50Z</time>
      </trkpt>
      <trkpt lat="43.44256" lon="6.53825">
        <ele>97</ele>
        <time>2018-12-05T14:57:56Z</time>
      </trkpt>
      <trkpt lat="43.44239" lon="6.53824">
        <ele>93</ele>
        <time>2018-12-05T14:58:12Z</time>
      </trkpt>
      <trkpt lat="43.44232" lon="6.53832">
        <ele>92</ele>
        <time>2018-12-05T14:58:17Z</time>
      </trkpt>
      <trkpt lat="43.44218" lon="6.53866">
        <ele>84</ele>
        <time>2018-12-05T14:58:39Z</time>
      </trkpt>
      <trkpt lat="43.4421" lon="6.53888">
        <ele>82</ele>
        <time>2018-12-05T14:58:52Z</time>
      </trkpt>
      <trkpt lat="43.44209" lon="6.53899">
        <ele>80</ele>
        <time>2018-12-05T14:59:01Z</time>
      </trkpt>
      <trkpt lat="43.44209" lon="6.53909">
        <ele>80</ele>
        <time>2018-12-05T14:59:06Z</time>
      </trkpt>
      <trkpt lat="43.44185" lon="6.53943">
        <ele>76</ele>
        <time>2018-12-05T14:59:38Z</time>
      </trkpt>
      <trkpt lat="43.44179" lon="6.53949">
        <ele>75</ele>
        <time>2018-12-05T14:59:43Z</time>
      </trkpt>
      <trkpt lat="43.44169" lon="6.53963">
        <ele>73</ele>
        <time>2018-12-05T14:59:54Z</time>
      </trkpt>
      <trkpt lat="43.44162" lon="6.53968">
        <ele>72</ele>
        <time>2018-12-05T14:59:59Z</time>
      </trkpt>
      <trkpt lat="43.44153" lon="6.53981">
        <ele>71</ele>
        <time>2018-12-05T15:00:09Z</time>
      </trkpt>
      <trkpt lat="43.44147" lon="6.53978">
        <ele>68</ele>
        <time>2018-12-05T15:00:53Z</time>
      </trkpt>
      <trkpt lat="43.44143" lon="6.5397">
        <ele>68</ele>
        <time>2018-12-05T15:01:01Z</time>
      </trkpt>
      <trkpt lat="43.44137" lon="6.53964">
        <ele>67</ele>
        <time>2018-12-05T15:01:12Z</time>
      </trkpt>
      <trkpt lat="43.44132" lon="6.53956">
        <ele>67</ele>
        <time>2018-12-05T15:01:22Z</time>
      </trkpt>
      <trkpt lat="43.44123" lon="6.53943">
        <ele>65</ele>
        <time>2018-12-05T15:01:36Z</time>
      </trkpt>
      <trkpt lat="43.4411" lon="6.5392">
        <ele>61</ele>
        <time>2018-12-05T15:02:02Z</time>
      </trkpt>
      <trkpt lat="43.44103" lon="6.53912">
        <ele>61</ele>
        <time>2018-12-05T15:02:14Z</time>
      </trkpt>
      <trkpt lat="43.44097" lon="6.53909">
        <ele>60</ele>
        <time>2018-12-05T15:02:21Z</time>
      </trkpt>
      <trkpt lat="43.44094" lon="6.53901">
        <ele>57</ele>
        <time>2018-12-05T15:02:28Z</time>
      </trkpt>
      <trkpt lat="43.44095" lon="6.53893">
        <ele>55</ele>
        <time>2018-12-05T15:02:38Z</time>
      </trkpt>
      <trkpt lat="43.44093" lon="6.53883">
        <ele>53</ele>
        <time>2018-12-05T15:02:51Z</time>
      </trkpt>
      <trkpt lat="43.44088" lon="6.53874">
        <ele>51</ele>
        <time>2018-12-05T15:02:59Z</time>
      </trkpt>
      <trkpt lat="43.44082" lon="6.53871">
        <ele>50</ele>
        <time>2018-12-05T15:03:05Z</time>
      </trkpt>
      <trkpt lat="43.44076" lon="6.5387">
        <ele>47</ele>
        <time>2018-12-05T15:03:10Z</time>
      </trkpt>
      <trkpt lat="43.44071" lon="6.53865">
        <ele>46</ele>
        <time>2018-12-05T15:03:21Z</time>
      </trkpt>
      <trkpt lat="43.44068" lon="6.53866">
        <ele>42</ele>
        <time>2018-12-05T15:03:39Z</time>
      </trkpt>
      <trkpt lat="43.44066" lon="6.53864">
        <ele>40</ele>
        <time>2018-12-05T15:04:08Z</time>
      </trkpt>
      <trkpt lat="43.44066" lon="6.53858">
        <ele>35</ele>
        <time>2018-12-05T15:05:53Z</time>
      </trkpt>
      <trkpt lat="43.44067" lon="6.53851">
        <ele>31</ele>
        <time>2018-12-05T15:06:04Z</time>
      </trkpt>
      <trkpt lat="43.44071" lon="6.53844">
        <ele>32</ele>
        <time>2018-12-05T15:06:21Z</time>
      </trkpt>
      <trkpt lat="43.44074" lon="6.53837">
        <ele>32</ele>
        <time>2018-12-05T15:06:30Z</time>
      </trkpt>
      <trkpt lat="43.44081" lon="6.5382">
        <ele>35</ele>
        <time>2018-12-05T15:06:44Z</time>
      </trkpt>
      <trkpt lat="43.44094" lon="6.53794">
        <ele>35</ele>
        <time>2018-12-05T15:07:04Z</time>
      </trkpt>
      <trkpt lat="43.441" lon="6.53787">
        <ele>34</ele>
        <time>2018-12-05T15:07:16Z</time>
      </trkpt>
      <trkpt lat="43.44107" lon="6.53783">
        <ele>32</ele>
        <time>2018-12-05T15:07:24Z</time>
      </trkpt>
      <trkpt lat="43.44111" lon="6.53776">
        <ele>33</ele>
        <time>2018-12-05T15:07:32Z</time>
      </trkpt>
      <trkpt lat="43.44114" lon="6.53767">
        <ele>35</ele>
        <time>2018-12-05T15:07:39Z</time>
      </trkpt>
      <trkpt lat="43.44127" lon="6.53761">
        <ele>34</ele>
        <time>2018-12-05T15:07:52Z</time>
      </trkpt>
      <trkpt lat="43.44133" lon="6.53757">
        <ele>34</ele>
        <time>2018-12-05T15:07:57Z</time>
      </trkpt>
      <trkpt lat="43.44138" lon="6.53753">
        <ele>35</ele>
        <time>2018-12-05T15:08:05Z</time>
      </trkpt>
      <trkpt lat="43.44145" lon="6.5375">
        <ele>36</ele>
        <time>2018-12-05T15:08:10Z</time>
      </trkpt>
      <trkpt lat="43.4416" lon="6.53736">
        <ele>35</ele>
        <time>2018-12-05T15:08:26Z</time>
      </trkpt>
      <trkpt lat="43.44165" lon="6.53729">
        <ele>35</ele>
        <time>2018-12-05T15:08:32Z</time>
      </trkpt>
      <trkpt lat="43.44192" lon="6.53704">
        <ele>40</ele>
        <time>2018-12-05T15:08:59Z</time>
      </trkpt>
      <trkpt lat="43.44197" lon="6.53698">
        <ele>38</ele>
        <time>2018-12-05T15:09:04Z</time>
      </trkpt>
      <trkpt lat="43.44212" lon="6.53682">
        <ele>37</ele>
        <time>2018-12-05T15:09:20Z</time>
      </trkpt>
      <trkpt lat="43.44216" lon="6.53677">
        <ele>34</ele>
        <time>2018-12-05T15:09:24Z</time>
      </trkpt>
      <trkpt lat="43.44218" lon="6.5367">
        <ele>33</ele>
        <time>2018-12-05T15:09:28Z</time>
      </trkpt>
      <trkpt lat="43.4423" lon="6.53637">
        <ele>31</ele>
        <time>2018-12-05T15:09:44Z</time>
      </trkpt>
      <trkpt lat="43.44234" lon="6.53631">
        <ele>31</ele>
        <time>2018-12-05T15:09:50Z</time>
      </trkpt>
      <trkpt lat="43.44237" lon="6.53624">
        <ele>32</ele>
        <time>2018-12-05T15:09:58Z</time>
      </trkpt>
      <trkpt lat="43.44263" lon="6.53592">
        <ele>36</ele>
        <time>2018-12-05T15:10:28Z</time>
      </trkpt>
      <trkpt lat="43.44266" lon="6.53586">
        <ele>36</ele>
        <time>2018-12-05T15:10:35Z</time>
      </trkpt>
      <trkpt lat="43.44275" lon="6.53576">
        <ele>35</ele>
        <time>2018-12-05T15:10:43Z</time>
      </trkpt>
      <trkpt lat="43.44279" lon="6.53568">
        <ele>34</ele>
        <time>2018-12-05T15:10:49Z</time>
      </trkpt>
      <trkpt lat="43.44284" lon="6.53564">
        <ele>35</ele>
        <time>2018-12-05T15:10:55Z</time>
      </trkpt>
      <trkpt lat="43.44307" lon="6.53536">
        <ele>33</ele>
        <time>2018-12-05T15:11:19Z</time>
      </trkpt>
      <trkpt lat="43.44315" lon="6.53519">
        <ele>34</ele>
        <time>2018-12-05T15:11:29Z</time>
      </trkpt>
      <trkpt lat="43.44319" lon="6.53512">
        <ele>33</ele>
        <time>2018-12-05T15:11:34Z</time>
      </trkpt>
      <trkpt lat="43.44324" lon="6.53506">
        <ele>32</ele>
        <time>2018-12-05T15:11:38Z</time>
      </trkpt>
      <trkpt lat="43.4433" lon="6.5349">
        <ele>31</ele>
        <time>2018-12-05T15:11:48Z</time>
      </trkpt>
      <trkpt lat="43.44349" lon="6.53453">
        <ele>35</ele>
        <time>2018-12-05T15:12:16Z</time>
      </trkpt>
      <trkpt lat="43.44354" lon="6.53444">
        <ele>36</ele>
        <time>2018-12-05T15:12:22Z</time>
      </trkpt>
      <trkpt lat="43.4436" lon="6.53434">
        <ele>37</ele>
        <time>2018-12-05T15:12:31Z</time>
      </trkpt>
      <trkpt lat="43.44362" lon="6.53422">
        <ele>39</ele>
        <time>2018-12-05T15:12:38Z</time>
      </trkpt>
      <trkpt lat="43.44365" lon="6.5341">
        <ele>40</ele>
        <time>2018-12-05T15:12:46Z</time>
      </trkpt>
      <trkpt lat="43.44372" lon="6.5339">
        <ele>44</ele>
        <time>2018-12-05T15:13:00Z</time>
      </trkpt>
      <trkpt lat="43.44376" lon="6.53381">
        <ele>45</ele>
        <time>2018-12-05T15:13:06Z</time>
      </trkpt>
      <trkpt lat="43.44383" lon="6.53359">
        <ele>46</ele>
        <time>2018-12-05T15:13:19Z</time>
      </trkpt>
      <trkpt lat="43.44389" lon="6.53329">
        <ele>46</ele>
        <time>2018-12-05T15:13:36Z</time>
      </trkpt>
      <trkpt lat="43.44391" lon="6.53307">
        <ele>49</ele>
        <time>2018-12-05T15:13:49Z</time>
      </trkpt>
      <trkpt lat="43.44391" lon="6.53297">
        <ele>49</ele>
        <time>2018-12-05T15:13:54Z</time>
      </trkpt>
      <trkpt lat="43.44392" lon="6.53286">
        <ele>51</ele>
        <time>2018-12-05T15:14:00Z</time>
      </trkpt>
      <trkpt lat="43.44393" lon="6.53277">
        <ele>51</ele>
        <time>2018-12-05T15:14:06Z</time>
      </trkpt>
      <trkpt lat="43.44397" lon="6.53258">
        <ele>52</ele>
        <time>2018-12-05T15:14:17Z</time>
      </trkpt>
      <trkpt lat="43.44396" lon="6.53239">
        <ele>51</ele>
        <time>2018-12-05T15:14:28Z</time>
      </trkpt>
      <trkpt lat="43.44395" lon="6.5323">
        <ele>50</ele>
        <time>2018-12-05T15:14:34Z</time>
      </trkpt>
      <trkpt lat="43.44397" lon="6.5322">
        <ele>50</ele>
        <time>2018-12-05T15:14:40Z</time>
      </trkpt>
      <trkpt lat="43.44395" lon="6.53212">
        <ele>51</ele>
        <time>2018-12-05T15:14:46Z</time>
      </trkpt>
      <trkpt lat="43.44394" lon="6.53202">
        <ele>52</ele>
        <time>2018-12-05T15:14:52Z</time>
      </trkpt>
      <trkpt lat="43.44388" lon="6.53175">
        <ele>52</ele>
        <time>2018-12-05T15:15:06Z</time>
      </trkpt>
      <trkpt lat="43.44384" lon="6.53161">
        <ele>53</ele>
        <time>2018-12-05T15:15:12Z</time>
      </trkpt>
      <trkpt lat="43.44377" lon="6.53145">
        <ele>53</ele>
        <time>2018-12-05T15:15:21Z</time>
      </trkpt>
      <trkpt lat="43.44372" lon="6.53127">
        <ele>48</ele>
        <time>2018-12-05T15:15:36Z</time>
      </trkpt>
      <trkpt lat="43.44368" lon="6.53109">
        <ele>47</ele>
        <time>2018-12-05T15:15:44Z</time>
      </trkpt>
      <trkpt lat="43.44369" lon="6.53088">
        <ele>41</ele>
        <time>2018-12-05T15:15:57Z</time>
      </trkpt>
      <trkpt lat="43.44369" lon="6.53068">
        <ele>43</ele>
        <time>2018-12-05T15:16:08Z</time>
      </trkpt>
      <trkpt lat="43.44366" lon="6.53049">
        <ele>43</ele>
        <time>2018-12-05T15:16:20Z</time>
      </trkpt>
      <trkpt lat="43.44361" lon="6.53027">
        <ele>40</ele>
        <time>2018-12-05T15:16:31Z</time>
      </trkpt>
      <trkpt lat="43.44359" lon="6.53005">
        <ele>40</ele>
        <time>2018-12-05T15:16:43Z</time>
      </trkpt>
      <trkpt lat="43.44347" lon="6.52994">
        <ele>41</ele>
        <time>2018-12-05T15:16:53Z</time>
      </trkpt>
      <trkpt lat="43.44335" lon="6.52962">
        <ele>42</ele>
        <time>2018-12-05T15:17:14Z</time>
      </trkpt>
      <trkpt lat="43.44326" lon="6.52944">
        <ele>42</ele>
        <time>2018-12-05T15:17:26Z</time>
      </trkpt>
      <trkpt lat="43.44319" lon="6.52929">
        <ele>42</ele>
        <time>2018-12-05T15:17:35Z</time>
      </trkpt>
      <trkpt lat="43.44312" lon="6.52919">
        <ele>41</ele>
        <time>2018-12-05T15:17:43Z</time>
      </trkpt>
      <trkpt lat="43.44306" lon="6.52902">
        <ele>40</ele>
        <time>2018-12-05T15:17:55Z</time>
      </trkpt>
      <trkpt lat="43.44299" lon="6.52854">
        <ele>41</ele>
        <time>2018-12-05T15:18:24Z</time>
      </trkpt>
      <trkpt lat="43.44294" lon="6.52834">
        <ele>42</ele>
        <time>2018-12-05T15:18:34Z</time>
      </trkpt>
      <trkpt lat="43.44287" lon="6.52821">
        <ele>43</ele>
        <time>2018-12-05T15:18:43Z</time>
      </trkpt>
      <trkpt lat="43.44284" lon="6.52806">
        <ele>43</ele>
        <time>2018-12-05T15:18:56Z</time>
      </trkpt>
      <trkpt lat="43.44276" lon="6.52793">
        <ele>40</ele>
        <time>2018-12-05T15:19:05Z</time>
      </trkpt>
      <trkpt lat="43.44272" lon="6.52779">
        <ele>38</ele>
        <time>2018-12-05T15:19:13Z</time>
      </trkpt>
      <trkpt lat="43.44266" lon="6.52763">
        <ele>36</ele>
        <time>2018-12-05T15:19:24Z</time>
      </trkpt>
      <trkpt lat="43.44264" lon="6.52726">
        <ele>35</ele>
        <time>2018-12-05T15:19:45Z</time>
      </trkpt>
      <trkpt lat="43.44258" lon="6.52715">
        <ele>35</ele>
        <time>2018-12-05T15:19:53Z</time>
      </trkpt>
      <trkpt lat="43.44257" lon="6.52685">
        <ele>33</ele>
        <time>2018-12-05T15:20:08Z</time>
      </trkpt>
      <trkpt lat="43.4426" lon="6.5267">
        <ele>33</ele>
        <time>2018-12-05T15:20:18Z</time>
      </trkpt>
      <trkpt lat="43.44258" lon="6.52658">
        <ele>32</ele>
        <time>2018-12-05T15:20:26Z</time>
      </trkpt>
      <trkpt lat="43.44261" lon="6.52644">
        <ele>33</ele>
        <time>2018-12-05T15:20:35Z</time>
      </trkpt>
      <trkpt lat="43.4426" lon="6.52631">
        <ele>34</ele>
        <time>2018-12-05T15:20:42Z</time>
      </trkpt>
      <trkpt lat="43.4426" lon="6.52619">
        <ele>35</ele>
        <time>2018-12-05T15:20:51Z</time>
      </trkpt>
      <trkpt lat="43.44262" lon="6.52605">
        <ele>36</ele>
        <time>2018-12-05T15:21:01Z</time>
      </trkpt>
      <trkpt lat="43.44264" lon="6.52591">
        <ele>38</ele>
        <time>2018-12-05T15:21:10Z</time>
      </trkpt>
      <trkpt lat="43.44267" lon="6.52576">
        <ele>42</ele>
        <time>2018-12-05T15:21:18Z</time>
      </trkpt>
      <trkpt lat="43.44268" lon="6.52561">
        <ele>44</ele>
        <time>2018-12-05T15:21:38Z</time>
      </trkpt>
      <trkpt lat="43.4427" lon="6.52547">
        <ele>43</ele>
        <time>2018-12-05T15:21:47Z</time>
      </trkpt>
      <trkpt lat="43.44274" lon="6.52532">
        <ele>44</ele>
        <time>2018-12-05T15:21:57Z</time>
      </trkpt>
      <trkpt lat="43.44273" lon="6.52516">
        <ele>45</ele>
        <time>2018-12-05T15:22:06Z</time>
      </trkpt>
      <trkpt lat="43.44271" lon="6.52502">
        <ele>50</ele>
        <time>2018-12-05T15:23:40Z</time>
      </trkpt>
      <trkpt lat="43.44266" lon="6.52483">
        <ele>51</ele>
        <time>2018-12-05T15:23:55Z</time>
      </trkpt>
      <trkpt lat="43.44273" lon="6.52468">
        <ele>51</ele>
        <time>2018-12-05T15:24:10Z</time>
      </trkpt>
      <trkpt lat="43.44279" lon="6.52451">
        <ele>51</ele>
        <time>2018-12-05T15:24:24Z</time>
      </trkpt>
      <trkpt lat="43.44286" lon="6.52441">
        <ele>50</ele>
        <time>2018-12-05T15:24:34Z</time>
      </trkpt>
      <trkpt lat="43.44303" lon="6.52433">
        <ele>48</ele>
        <time>2018-12-05T15:24:58Z</time>
      </trkpt>
      <trkpt lat="43.44315" lon="6.52437">
        <ele>49</ele>
        <time>2018-12-05T15:25:11Z</time>
      </trkpt>
      <trkpt lat="43.44351" lon="6.52442">
        <ele>51</ele>
        <time>2018-12-05T15:25:43Z</time>
      </trkpt>
      <trkpt lat="43.44371" lon="6.52435">
        <ele>53</ele>
        <time>2018-12-05T15:26:03Z</time>
      </trkpt>
      <trkpt lat="43.44378" lon="6.52422">
        <ele>54</ele>
        <time>2018-12-05T15:26:14Z</time>
      </trkpt>
      <trkpt lat="43.44386" lon="6.52412">
        <ele>54</ele>
        <time>2018-12-05T15:26:24Z</time>
      </trkpt>
      <trkpt lat="43.44396" lon="6.52397">
        <ele>52</ele>
        <time>2018-12-05T15:26:36Z</time>
      </trkpt>
      <trkpt lat="43.44407" lon="6.52392">
        <ele>50</ele>
        <time>2018-12-05T15:26:48Z</time>
      </trkpt>
      <trkpt lat="43.44427" lon="6.52391">
        <ele>50</ele>
        <time>2018-12-05T15:27:09Z</time>
      </trkpt>
      <trkpt lat="43.44464" lon="6.52391">
        <ele>56</ele>
        <time>2018-12-05T15:27:46Z</time>
      </trkpt>
      <trkpt lat="43.44474" lon="6.5239">
        <ele>57</ele>
        <time>2018-12-05T15:27:57Z</time>
      </trkpt>
      <trkpt lat="43.44511" lon="6.524">
        <ele>55</ele>
        <time>2018-12-05T15:28:29Z</time>
      </trkpt>
      <trkpt lat="43.44517" lon="6.52405">
        <ele>55</ele>
        <time>2018-12-05T15:28:38Z</time>
      </trkpt>
      <trkpt lat="43.44545" lon="6.52432">
        <ele>57</ele>
        <time>2018-12-05T15:29:07Z</time>
      </trkpt>
      <trkpt lat="43.44551" lon="6.5243">
        <ele>57</ele>
        <time>2018-12-05T15:29:16Z</time>
      </trkpt>
      <trkpt lat="43.44548" lon="6.5242">
        <ele>59</ele>
        <time>2018-12-05T15:29:26Z</time>
      </trkpt>
      <trkpt lat="43.4454" lon="6.52399">
        <ele>64</ele>
        <time>2018-12-05T15:29:43Z</time>
      </trkpt>
      <trkpt lat="43.44532" lon="6.52373">
        <ele>65</ele>
        <time>2018-12-05T15:30:05Z</time>
      </trkpt>
      <trkpt lat="43.44528" lon="6.52361">
        <ele>63</ele>
        <time>2018-12-05T15:30:13Z</time>
      </trkpt>
      <trkpt lat="43.44533" lon="6.52348">
        <ele>62</ele>
        <time>2018-12-05T15:30:22Z</time>
      </trkpt>
      <trkpt lat="43.44541" lon="6.5234">
        <ele>64</ele>
        <time>2018-12-05T15:30:32Z</time>
      </trkpt>
      <trkpt lat="43.44545" lon="6.52327">
        <ele>64</ele>
        <time>2018-12-05T15:30:40Z</time>
      </trkpt>
      <trkpt lat="43.44551" lon="6.52317">
        <ele>64</ele>
        <time>2018-12-05T15:30:49Z</time>
      </trkpt>
      <trkpt lat="43.44554" lon="6.52308">
        <ele>64</ele>
        <time>2018-12-05T15:30:57Z</time>
      </trkpt>
      <trkpt lat="43.44556" lon="6.52292">
        <ele>64</ele>
        <time>2018-12-05T15:31:08Z</time>
      </trkpt>
      <trkpt lat="43.44563" lon="6.52281">
        <ele>65</ele>
        <time>2018-12-05T15:31:19Z</time>
      </trkpt>
      <trkpt lat="43.44563" lon="6.52267">
        <ele>66</ele>
        <time>2018-12-05T15:31:34Z</time>
      </trkpt>
      <trkpt lat="43.44573" lon="6.52228">
        <ele>75</ele>
        <time>2018-12-05T15:32:06Z</time>
      </trkpt>
      <trkpt lat="43.44571" lon="6.52214">
        <ele>73</ele>
        <time>2018-12-05T15:32:17Z</time>
      </trkpt>
      <trkpt lat="43.44571" lon="6.52204">
        <ele>70</ele>
        <time>2018-12-05T15:32:23Z</time>
      </trkpt>
      <trkpt lat="43.44572" lon="6.52196">
        <ele>69</ele>
        <time>2018-12-05T15:32:28Z</time>
      </trkpt>
      <trkpt lat="43.44576" lon="6.52187">
        <ele>70</ele>
        <time>2018-12-05T15:32:38Z</time>
      </trkpt>
      <trkpt lat="43.44581" lon="6.52176">
        <ele>71</ele>
        <time>2018-12-05T15:32:54Z</time>
      </trkpt>
      <trkpt lat="43.44588" lon="6.52167">
        <ele>72</ele>
        <time>2018-12-05T15:33:06Z</time>
      </trkpt>
      <trkpt lat="43.44615" lon="6.52153">
        <ele>75</ele>
        <time>2018-12-05T15:33:36Z</time>
      </trkpt>
      <trkpt lat="43.44638" lon="6.52134">
        <ele>78</ele>
        <time>2018-12-05T15:34:00Z</time>
      </trkpt>
      <trkpt lat="43.44642" lon="6.5211">
        <ele>78</ele>
        <time>2018-12-05T15:34:14Z</time>
      </trkpt>
      <trkpt lat="43.44644" lon="6.52099">
        <ele>78</ele>
        <time>2018-12-05T15:34:22Z</time>
      </trkpt>
      <trkpt lat="43.44649" lon="6.5209">
        <ele>78</ele>
        <time>2018-12-05T15:34:29Z</time>
      </trkpt>
      <trkpt lat="43.44654" lon="6.52079">
        <ele>78</ele>
        <time>2018-12-05T15:34:37Z</time>
      </trkpt>
      <trkpt lat="43.44659" lon="6.52071">
        <ele>77</ele>
        <time>2018-12-05T15:34:43Z</time>
      </trkpt>
      <trkpt lat="43.44665" lon="6.52065">
        <ele>78</ele>
        <time>2018-12-05T15:34:51Z</time>
      </trkpt>
      <trkpt lat="43.44688" lon="6.52041">
        <ele>82</ele>
        <time>2018-12-05T15:35:16Z</time>
      </trkpt>
      <trkpt lat="43.44702" lon="6.52025">
        <ele>82</ele>
        <time>2018-12-05T15:35:30Z</time>
      </trkpt>
      <trkpt lat="43.44709" lon="6.52017">
        <ele>82</ele>
        <time>2018-12-05T15:35:37Z</time>
      </trkpt>
      <trkpt lat="43.44716" lon="6.52008">
        <ele>82</ele>
        <time>2018-12-05T15:35:43Z</time>
      </trkpt>
      <trkpt lat="43.44724" lon="6.51997">
        <ele>82</ele>
        <time>2018-12-05T15:35:50Z</time>
      </trkpt>
      <trkpt lat="43.44732" lon="6.51974">
        <ele>82</ele>
        <time>2018-12-05T15:36:07Z</time>
      </trkpt>
      <trkpt lat="43.44736" lon="6.51963">
        <ele>79</ele>
        <time>2018-12-05T15:36:15Z</time>
      </trkpt>
      <trkpt lat="43.44747" lon="6.51943">
        <ele>78</ele>
        <time>2018-12-05T15:36:28Z</time>
      </trkpt>
      <trkpt lat="43.44751" lon="6.51932">
        <ele>78</ele>
        <time>2018-12-05T15:36:35Z</time>
      </trkpt>
      <trkpt lat="43.44757" lon="6.5192">
        <ele>76</ele>
        <time>2018-12-05T15:36:43Z</time>
      </trkpt>
      <trkpt lat="43.44771" lon="6.51903">
        <ele>75</ele>
        <time>2018-12-05T15:36:58Z</time>
      </trkpt>
      <trkpt lat="43.44802" lon="6.51871">
        <ele>75</ele>
        <time>2018-12-05T15:37:32Z</time>
      </trkpt>
      <trkpt lat="43.4481" lon="6.51863">
        <ele>76</ele>
        <time>2018-12-05T15:37:41Z</time>
      </trkpt>
      <trkpt lat="43.44848" lon="6.51836">
        <ele>78</ele>
        <time>2018-12-05T15:38:15Z</time>
      </trkpt>
      <trkpt lat="43.44858" lon="6.51832">
        <ele>79</ele>
        <time>2018-12-05T15:38:23Z</time>
      </trkpt>
      <trkpt lat="43.44866" lon="6.51821">
        <ele>80</ele>
        <time>2018-12-05T15:38:33Z</time>
      </trkpt>
      <trkpt lat="43.44897" lon="6.51795">
        <ele>83</ele>
        <time>2018-12-05T15:39:01Z</time>
      </trkpt>
      <trkpt lat="43.44914" lon="6.51785">
        <ele>82</ele>
        <time>2018-12-05T15:39:16Z</time>
      </trkpt>
      <trkpt lat="43.44957" lon="6.51794">
        <ele>81</ele>
        <time>2018-12-05T15:39:50Z</time>
      </trkpt>
      <trkpt lat="43.44978" lon="6.51795">
        <ele>80</ele>
        <time>2018-12-05T15:40:06Z</time>
      </trkpt>
      <trkpt lat="43.4499" lon="6.5179">
        <ele>81</ele>
        <time>2018-12-05T15:40:16Z</time>
      </trkpt>
      <trkpt lat="43.44996" lon="6.51783">
        <ele>80</ele>
        <time>2018-12-05T15:40:47Z</time>
      </trkpt>
      <trkpt lat="43.45003" lon="6.51778">
        <ele>79</ele>
        <time>2018-12-05T15:40:51Z</time>
      </trkpt>
      <trkpt lat="43.4503" lon="6.51762">
        <ele>76</ele>
        <time>2018-12-05T15:41:13Z</time>
      </trkpt>
      <trkpt lat="43.45039" lon="6.51758">
        <ele>76</ele>
        <time>2018-12-05T15:41:20Z</time>
      </trkpt>
      <trkpt lat="43.45052" lon="6.51762">
        <ele>76</ele>
        <time>2018-12-05T15:41:56Z</time>
      </trkpt>
      <trkpt lat="43.45068" lon="6.51763">
        <ele>74</ele>
        <time>2018-12-05T15:42:12Z</time>
      </trkpt>
      <trkpt lat="43.4508" lon="6.51752">
        <ele>74</ele>
        <time>2018-12-05T15:42:38Z</time>
      </trkpt>
      <trkpt lat="43.45086" lon="6.51748">
        <ele>74</ele>
        <time>2018-12-05T15:42:46Z</time>
      </trkpt>
      <trkpt lat="43.45091" lon="6.51747">
        <ele>73</ele>
        <time>2018-12-05T15:42:57Z</time>
      </trkpt>
      <trkpt lat="43.45101" lon="6.51741">
        <ele>73</ele>
        <time>2018-12-05T15:43:15Z</time>
      </trkpt>
    </trkseg>
  </trk>
</gpx>